sensor_id;sensor_type;location;lat;lon;timestamp;temperature;humidity
24664;DHT22;12791;50.992;13.788;2022-11-25T04:02:16;5.30;99.90
24664;DHT22;12791;50.992;13.788;2022-11-25T04:04:43;5.40;99.90
24664;DHT22;12791;50.992;13.788;2022-11-25T04:07:09;5.30;99.90
24664;DHT22;12791;50.992;13.788;2022-11-25T04:09:36;5.30;99.90
24664;DHT22;12791;50.992;13.788;2022-11-25T04:12:04;5.40;99.90
24664;DHT22;12791;50.992;13.788;2022-11-25T04:14:48;5.30;99.90
24664;DHT22;12791;50.992;13.788;2022-11-25T04:17:16;5.60;99.90
24664;DHT22;12791;50.992;13.788;2022-11-25T04:19:43;5.40;99.90
24664;DHT22;12791;50.992;13.788;2022-11-25T04:22:10;5.70;99.90
24664;DHT22;12791;50.992;13.788;2022-11-25T04:24:37;5.60;99.90
24664;DHT22;12791;50.992;13.788;2022-11-25T04:27:03;5.30;99.90
24664;DHT22;12791;50.992;13.788;2022-11-25T04:29:30;5.60;99.90
24664;DHT22;12791;50.992;13.788;2022-11-25T04:31:57;5.40;99.90
24664;DHT22;12791;50.992;13.788;2022-11-25T04:34:25;5.40;99.90
24664;DHT22;12791;50.992;13.788;2022-11-25T04:36:52;5.40;99.90
24664;DHT22;12791;50.992;13.788;2022-11-25T04:39:19;5.10;99.90
24664;DHT22;12791;50.992;13.788;2022-11-25T04:41:45;5.30;99.90
24664;DHT22;12791;50.992;13.788;2022-11-25T04:44:12;5.10;99.90
24664;DHT22;12791;50.992;13.788;2022-11-25T04:46:40;5.30;99.90
24664;DHT22;12791;50.992;13.788;2022-11-25T04:49:08;5.50;99.90
24664;DHT22;12791;50.992;13.788;2022-11-25T04:51:37;4.80;99.90
24664;DHT22;12791;50.992;13.788;2022-11-25T04:54:04;5.20;99.90
24664;DHT22;12791;50.992;13.788;2022-11-25T04:56:31;5.50;99.90
24664;DHT22;12791;50.992;13.788;2022-11-25T04:58:58;5.40;99.90
24664;DHT22;12791;50.992;13.788;2022-11-25T05:01:42;5.10;99.90
24664;DHT22;12791;50.992;13.788;2022-11-25T05:04:09;5.10;99.90
24664;DHT22;12791;50.992;13.788;2022-11-25T05:06:37;5.20;99.90
24664;DHT22;12791;50.992;13.788;2022-11-25T05:09:04;5.20;99.90
24664;DHT22;12791;50.992;13.788;2022-11-25T05:11:31;5.40;99.90
24664;DHT22;12791;50.992;13.788;2022-11-25T05:13:57;5.30;99.90
24664;DHT22;12791;50.992;13.788;2022-11-25T05:16:24;5.30;99.90
24664;DHT22;12791;50.992;13.788;2022-11-25T05:18:51;5.40;99.90
24664;DHT22;12791;50.992;13.788;2022-11-25T05:21:18;5.10;99.90
24664;DHT22;12791;50.992;13.788;2022-11-25T05:23:46;5.00;99.90
24664;DHT22;12791;50.992;13.788;2022-11-25T05:26:12;5.20;99.90
24664;DHT22;12791;50.992;13.788;2022-11-25T05:28:39;5.00;99.90
24664;DHT22;12791;50.992;13.788;2022-11-25T05:31:06;4.90;99.90
24664;DHT22;12791;50.992;13.788;2022-11-25T05:33:33;4.90;99.90
24664;DHT22;12791;50.992;13.788;2022-11-25T05:36:01;5.00;99.90
24664;DHT22;12791;50.992;13.788;2022-11-25T05:38:29;4.80;99.90
24664;DHT22;12791;50.992;13.788;2022-11-25T05:41:02;4.80;99.90
24664;DHT22;12791;50.992;13.788;2022-11-25T05:43:29;4.90;99.90
24664;DHT22;12791;50.992;13.788;2022-11-25T05:45:55;4.80;99.90
24664;DHT22;12791;50.992;13.788;2022-11-25T05:48:22;4.90;99.90
24664;DHT22;12791;50.992;13.788;2022-11-25T05:50:49;4.60;99.90
24664;DHT22;12791;50.992;13.788;2022-11-25T05:53:16;4.80;99.90
24664;DHT22;12791;50.992;13.788;2022-11-25T05:55:43;4.40;99.90
24664;DHT22;12791;50.992;13.788;2022-11-25T05:58:11;4.50;99.90
24664;DHT22;12791;50.992;13.788;2022-11-25T06:00:38;4.60;99.90
24664;DHT22;12791;50.992;13.788;2022-11-25T06:03:05;4.60;99.90
24664;DHT22;12791;50.992;13.788;2022-11-25T06:05:33;4.30;99.90
24664;DHT22;12791;50.992;13.788;2022-11-25T06:08:00;4.60;99.90
24664;DHT22;12791;50.992;13.788;2022-11-25T06:10:27;4.50;99.90
24664;DHT22;12791;50.992;13.788;2022-11-25T06:12:53;4.30;99.90
24664;DHT22;12791;50.992;13.788;2022-11-25T06:15:21;4.10;99.90
24664;DHT22;12791;50.992;13.788;2022-11-25T06:17:48;4.20;99.90
24664;DHT22;12791;50.992;13.788;2022-11-25T06:20:15;4.10;99.90
24664;DHT22;12791;50.992;13.788;2022-11-25T06:22:42;4.10;99.90
24664;DHT22;12791;50.992;13.788;2022-11-25T06:25:09;4.10;99.90
24664;DHT22;12791;50.992;13.788;2022-11-25T06:27:36;4.10;99.90
24664;DHT22;12791;50.992;13.788;2022-11-25T06:30:03;3.80;99.90
24664;DHT22;12791;50.992;13.788;2022-11-25T06:32:32;4.10;99.90
24664;DHT22;12791;50.992;13.788;2022-11-25T06:34:58;4.20;99.90
24664;DHT22;12791;50.992;13.788;2022-11-25T06:37:25;3.90;99.90
24664;DHT22;12791;50.992;13.788;2022-11-25T06:39:52;3.90;99.90
24664;DHT22;12791;50.992;13.788;2022-11-25T06:42:19;3.90;99.90
24664;DHT22;12791;50.992;13.788;2022-11-25T06:44:46;4.00;99.90
24664;DHT22;12791;50.992;13.788;2022-11-25T06:47:12;4.00;99.90
24664;DHT22;12791;50.992;13.788;2022-11-25T06:49:40;3.90;99.90
24664;DHT22;12791;50.992;13.788;2022-11-25T06:52:07;3.80;99.90
24664;DHT22;12791;50.992;13.788;2022-11-25T06:54:34;3.80;99.90
24664;DHT22;12791;50.992;13.788;2022-11-25T06:57:05;3.70;99.90
24664;DHT22;12791;50.992;13.788;2022-11-25T06:59:32;3.80;99.90
24664;DHT22;12791;50.992;13.788;2022-11-25T07:01:59;3.70;99.90
24664;DHT22;12791;50.992;13.788;2022-11-25T07:04:26;3.70;99.90
24664;DHT22;12791;50.992;13.788;2022-11-25T07:06:54;3.80;99.90
24664;DHT22;12791;50.992;13.788;2022-11-25T07:09:21;3.80;99.90
24664;DHT22;12791;50.992;13.788;2022-11-25T07:11:49;3.60;99.90
24664;DHT22;12791;50.992;13.788;2022-11-25T07:14:16;3.80;99.90
24664;DHT22;12791;50.992;13.788;2022-11-25T07:16:44;3.70;99.90
24664;DHT22;12791;50.992;13.788;2022-11-25T07:19:12;3.70;99.90
24664;DHT22;12791;50.992;13.788;2022-11-25T07:21:40;3.80;99.90
24664;DHT22;12791;50.992;13.788;2022-11-25T07:24:11;3.10;99.90
24664;DHT22;12791;50.992;13.788;2022-11-25T07:26:39;3.60;99.90
24664;DHT22;12791;50.992;13.788;2022-11-25T07:29:09;3.70;99.90
24664;DHT22;12791;50.992;13.788;2022-11-25T07:31:37;3.70;99.90
24664;DHT22;12791;50.992;13.788;2022-11-25T07:34:06;3.70;99.90
24664;DHT22;12791;50.992;13.788;2022-11-25T07:36:34;4.00;99.90
24664;DHT22;12791;50.992;13.788;2022-11-25T07:39:03;3.80;99.90
24664;DHT22;12791;50.992;13.788;2022-11-25T07:41:32;3.80;99.90
24664;DHT22;12791;50.992;13.788;2022-11-25T07:44:01;3.70;99.90
24664;DHT22;12791;50.992;13.788;2022-11-25T07:46:29;3.80;99.90
24664;DHT22;12791;50.992;13.788;2022-11-25T07:48:58;3.90;99.90
24664;DHT22;12791;50.992;13.788;2022-11-25T07:51:27;3.80;99.90
24664;DHT22;12791;50.992;13.788;2022-11-25T07:53:56;4.10;99.90
24664;DHT22;12791;50.992;13.788;2022-11-25T07:56:23;3.90;99.90
24664;DHT22;12791;50.992;13.788;2022-11-25T07:58:52;3.80;99.90
24664;DHT22;12791;50.992;13.788;2022-11-25T08:01:19;4.00;99.90
24664;DHT22;12791;50.992;13.788;2022-11-25T08:03:47;3.90;99.90
24664;DHT22;12791;50.992;13.788;2022-11-25T08:06:15;4.10;99.90
24664;DHT22;12791;50.992;13.788;2022-11-25T08:08:42;4.00;99.90
24664;DHT22;12791;50.992;13.788;2022-11-25T08:11:11;4.00;99.90
24664;DHT22;12791;50.992;13.788;2022-11-25T08:13:38;4.10;99.90
24664;DHT22;12791;50.992;13.788;2022-11-25T08:16:07;4.00;99.90
24664;DHT22;12791;50.992;13.788;2022-11-25T08:18:34;4.00;99.90
24664;DHT22;12791;50.992;13.788;2022-11-25T08:21:03;3.90;99.90
24664;DHT22;12791;50.992;13.788;2022-11-25T08:23:31;4.20;99.90
24664;DHT22;12791;50.992;13.788;2022-11-25T08:26:02;4.00;99.90
24664;DHT22;12791;50.992;13.788;2022-11-25T08:28:33;3.90;99.90
24664;DHT22;12791;50.992;13.788;2022-11-25T08:31:04;4.20;99.90
24664;DHT22;12791;50.992;13.788;2022-11-25T08:33:32;3.90;99.90
24664;DHT22;12791;50.992;13.788;2022-11-25T08:35:59;4.10;99.90
24664;DHT22;12791;50.992;13.788;2022-11-25T08:38:27;4.00;99.90
24664;DHT22;12791;50.992;13.788;2022-11-25T08:40:54;4.30;99.90
24664;DHT22;12791;50.992;13.788;2022-11-25T08:43:22;4.20;99.90
24664;DHT22;12791;50.992;13.788;2022-11-25T08:45:49;4.00;99.90
24664;DHT22;12791;50.992;13.788;2022-11-25T08:48:17;4.50;99.90
24664;DHT22;12791;50.992;13.788;2022-11-25T08:50:48;4.20;99.90
24664;DHT22;12791;50.992;13.788;2022-11-25T08:53:16;4.30;99.90
24664;DHT22;12791;50.992;13.788;2022-11-25T08:55:42;4.30;99.90
24664;DHT22;12791;50.992;13.788;2022-11-25T08:58:09;4.40;99.90
24664;DHT22;12791;50.992;13.788;2022-11-25T09:00:37;4.50;99.90
24664;DHT22;12791;50.992;13.788;2022-11-25T09:03:04;4.60;99.90
24664;DHT22;12791;50.992;13.788;2022-11-25T09:05:31;4.60;99.90
24664;DHT22;12791;50.992;13.788;2022-11-25T09:08:01;4.70;99.90
24664;DHT22;12791;50.992;13.788;2022-11-25T09:10:29;4.70;99.90
24664;DHT22;12791;50.992;13.788;2022-11-25T09:12:56;4.70;99.90
24664;DHT22;12791;50.992;13.788;2022-11-25T09:15:23;4.70;99.90
24664;DHT22;12791;50.992;13.788;2022-11-25T09:17:57;4.80;99.90
24664;DHT22;12791;50.992;13.788;2022-11-25T09:20:24;4.90;99.90
24664;DHT22;12791;50.992;13.788;2022-11-25T09:22:51;4.80;99.90
24664;DHT22;12791;50.992;13.788;2022-11-25T09:25:19;4.80;99.90
24664;DHT22;12791;50.992;13.788;2022-11-25T09:27:47;4.90;99.90
24664;DHT22;12791;50.992;13.788;2022-11-25T09:30:14;4.70;99.90
24664;DHT22;12791;50.992;13.788;2022-11-25T09:32:40;4.80;99.90
24664;DHT22;12791;50.992;13.788;2022-11-25T09:35:07;5.10;99.90
24664;DHT22;12791;50.992;13.788;2022-11-25T09:37:34;5.10;99.90
24664;DHT22;12791;50.992;13.788;2022-11-25T09:40:01;5.20;99.90
24664;DHT22;12791;50.992;13.788;2022-11-25T09:42:37;5.10;99.90
24664;DHT22;12791;50.992;13.788;2022-11-25T09:45:32;5.00;99.90
24664;DHT22;12791;50.992;13.788;2022-11-25T09:48:32;5.00;99.90
24664;DHT22;12791;50.992;13.788;2022-11-25T09:51:03;5.20;99.90
24664;DHT22;12791;50.992;13.788;2022-11-25T09:53:41;5.10;99.90
24664;DHT22;12791;50.992;13.788;2022-11-25T09:56:13;5.10;99.90
24664;DHT22;12791;50.992;13.788;2022-11-25T09:58:47;4.60;99.90
24664;DHT22;12791;50.992;13.788;2022-11-25T10:01:18;5.20;99.90
24664;DHT22;12791;50.992;13.788;2022-11-25T10:03:49;5.40;99.90
24664;DHT22;12791;50.992;13.788;2022-11-25T10:06:20;5.40;99.90
24664;DHT22;12791;50.992;13.788;2022-11-25T10:08:50;5.40;99.90
24664;DHT22;12791;50.992;13.788;2022-11-25T10:11:25;5.40;99.90
24664;DHT22;12791;50.992;13.788;2022-11-25T10:13:58;5.40;99.90
24664;DHT22;12791;50.992;13.788;2022-11-25T10:16:34;5.60;99.90
24664;DHT22;12791;50.992;13.788;2022-11-25T10:19:11;5.50;99.90
24664;DHT22;12791;50.992;13.788;2022-11-25T10:21:41;5.60;99.90
24664;DHT22;12791;50.992;13.788;2022-11-25T10:24:12;5.70;99.90
24664;DHT22;12791;50.992;13.788;2022-11-25T10:26:42;5.80;99.90
24664;DHT22;12791;50.992;13.788;2022-11-25T10:29:29;5.90;99.90
24664;DHT22;12791;50.992;13.788;2022-11-25T10:32:04;5.70;99.90
24664;DHT22;12791;50.992;13.788;2022-11-25T10:34:39;5.90;99.90
24664;DHT22;12791;50.992;13.788;2022-11-25T10:37:11;5.70;99.90
24664;DHT22;12791;50.992;13.788;2022-11-25T10:39:39;5.80;99.90
24664;DHT22;12791;50.992;13.788;2022-11-25T10:42:12;5.90;99.90
24664;DHT22;12791;50.992;13.788;2022-11-25T10:44:41;5.90;99.90
24664;DHT22;12791;50.992;13.788;2022-11-25T10:47:17;6.00;99.90
24664;DHT22;12791;50.992;13.788;2022-11-25T10:49:59;6.00;99.90
24664;DHT22;12791;50.992;13.788;2022-11-25T10:52:33;5.80;99.90
24664;DHT22;12791;50.992;13.788;2022-11-25T10:55:09;6.10;99.90
24664;DHT22;12791;50.992;13.788;2022-11-25T10:57:36;6.20;99.90
24664;DHT22;12791;50.992;13.788;2022-11-25T11:00:22;6.50;99.90
24664;DHT22;12791;50.992;13.788;2022-11-25T11:02:49;6.10;99.90
24664;DHT22;12791;50.992;13.788;2022-11-25T11:05:20;6.30;99.90
24664;DHT22;12791;50.992;13.788;2022-11-25T11:08:06;6.50;99.90
24664;DHT22;12791;50.992;13.788;2022-11-25T11:10:34;6.40;99.90
24664;DHT22;12791;50.992;13.788;2022-11-25T11:13:02;6.40;99.90
24664;DHT22;12791;50.992;13.788;2022-11-25T11:15:32;6.30;99.90
24664;DHT22;12791;50.992;13.788;2022-11-25T11:18:14;6.60;99.90
24664;DHT22;12791;50.992;13.788;2022-11-25T11:20:47;6.50;99.90
24664;DHT22;12791;50.992;13.788;2022-11-25T11:23:15;6.50;99.90
24664;DHT22;12791;50.992;13.788;2022-11-25T11:25:43;6.60;99.90
24664;DHT22;12791;50.992;13.788;2022-11-25T11:28:26;6.70;99.90
24664;DHT22;12791;50.992;13.788;2022-11-25T11:30:59;6.80;99.90
24664;DHT22;12791;50.992;13.788;2022-11-25T11:33:35;6.90;99.90
24664;DHT22;12791;50.992;13.788;2022-11-25T11:36:15;6.70;99.90
24664;DHT22;12791;50.992;13.788;2022-11-25T11:38:51;6.90;99.90
24664;DHT22;12791;50.992;13.788;2022-11-25T11:41:26;6.80;99.90
24664;DHT22;12791;50.992;13.788;2022-11-25T11:44:03;6.90;99.90
24664;DHT22;12791;50.992;13.788;2022-11-25T11:49:34;7.00;99.90
24664;DHT22;12791;50.992;13.788;2022-11-25T11:52:08;7.00;99.90
24664;DHT22;12791;50.992;13.788;2022-11-25T11:54:42;7.00;99.90
24664;DHT22;12791;50.992;13.788;2022-11-25T11:57:20;7.20;99.90
24664;DHT22;12791;50.992;13.788;2022-11-25T11:59:50;7.10;99.90
24664;DHT22;12791;50.992;13.788;2022-11-25T12:02:39;7.10;99.90
24664;DHT22;12791;50.992;13.788;2022-11-25T12:05:14;6.60;99.90
24664;DHT22;12791;50.992;13.788;2022-11-25T12:07:47;7.10;99.90
24664;DHT22;12791;50.992;13.788;2022-11-25T12:10:21;7.00;99.90
24664;DHT22;12791;50.992;13.788;2022-11-25T12:12:52;7.20;99.90
24664;DHT22;12791;50.992;13.788;2022-11-25T12:15:26;7.10;99.90
24664;DHT22;12791;50.992;13.788;2022-11-25T12:18:00;7.00;99.90
24664;DHT22;12791;50.992;13.788;2022-11-25T12:20:34;6.70;99.90
24664;DHT22;12791;50.992;13.788;2022-11-25T12:23:06;7.00;99.90
24664;DHT22;12791;50.992;13.788;2022-11-25T12:25:36;6.90;99.90
24664;DHT22;12791;50.992;13.788;2022-11-25T12:28:07;6.50;99.90
24664;DHT22;12791;50.992;13.788;2022-11-25T12:30:39;6.90;99.90
24664;DHT22;12791;50.992;13.788;2022-11-25T12:33:15;7.20;99.90
24664;DHT22;12791;50.992;13.788;2022-11-25T12:35:52;7.20;99.90
24664;DHT22;12791;50.992;13.788;2022-11-25T12:38:27;7.10;99.90
24664;DHT22;12791;50.992;13.788;2022-11-25T12:41:01;7.10;99.90
24664;DHT22;12791;50.992;13.788;2022-11-25T12:43:37;7.30;99.90
24664;DHT22;12791;50.992;13.788;2022-11-25T12:46:16;7.30;99.90
24664;DHT22;12791;50.992;13.788;2022-11-25T12:48:45;7.30;99.90
24664;DHT22;12791;50.992;13.788;2022-11-25T12:51:19;7.30;99.90
24664;DHT22;12791;50.992;13.788;2022-11-25T12:53:58;7.20;99.90
24664;DHT22;12791;50.992;13.788;2022-11-25T12:56:42;7.30;99.90
24664;DHT22;12791;50.992;13.788;2022-11-25T12:59:31;7.30;99.90
24664;DHT22;12791;50.992;13.788;2022-11-25T13:02:21;7.30;99.90
24664;DHT22;12791;50.992;13.788;2022-11-25T13:05:29;7.40;99.90
24664;DHT22;12791;50.992;13.788;2022-11-25T13:08:15;7.40;99.90
24664;DHT22;12791;50.992;13.788;2022-11-25T13:10:55;7.40;99.90
24664;DHT22;12791;50.992;13.788;2022-11-25T13:13:31;7.50;99.90
24664;DHT22;12791;50.992;13.788;2022-11-25T13:16:05;7.50;99.90
24664;DHT22;12791;50.992;13.788;2022-11-25T13:18:33;7.30;99.90
24664;DHT22;12791;50.992;13.788;2022-11-25T13:21:07;7.30;99.90
24664;DHT22;12791;50.992;13.788;2022-11-25T13:23:45;7.30;99.90
24664;DHT22;12791;50.992;13.788;2022-11-25T13:26:33;7.30;99.90
24664;DHT22;12791;50.992;13.788;2022-11-25T13:29:06;7.40;99.90
24664;DHT22;12791;50.992;13.788;2022-11-25T13:31:54;7.30;99.90
24664;DHT22;12791;50.992;13.788;2022-11-25T13:34:25;7.40;99.90
24664;DHT22;12791;50.992;13.788;2022-11-25T13:36:54;7.10;99.90
24664;DHT22;12791;50.992;13.788;2022-11-25T13:39:30;7.40;99.90
24664;DHT22;12791;50.992;13.788;2022-11-25T13:41:59;7.60;99.90
24664;DHT22;12791;50.992;13.788;2022-11-25T13:44:30;7.40;99.90
24664;DHT22;12791;50.992;13.788;2022-11-25T13:49:51;7.40;99.90
24664;DHT22;12791;50.992;13.788;2022-11-25T13:52:41;7.30;99.90
24664;DHT22;12791;50.992;13.788;2022-11-25T13:55:27;7.30;99.90
24664;DHT22;12791;50.992;13.788;2022-11-25T13:58:05;7.30;99.90
24664;DHT22;12791;50.992;13.788;2022-11-25T14:00:58;7.30;99.90
24664;DHT22;12791;50.992;13.788;2022-11-25T14:03:53;7.30;99.90
24664;DHT22;12791;50.992;13.788;2022-11-25T14:06:43;7.30;99.90
24664;DHT22;12791;50.992;13.788;2022-11-25T14:09:28;7.10;99.90
24664;DHT22;12791;50.992;13.788;2022-11-25T14:12:22;7.20;99.90
24664;DHT22;12791;50.992;13.788;2022-11-25T14:15:01;7.20;99.90
24664;DHT22;12791;50.992;13.788;2022-11-25T14:18:10;7.00;99.90
24664;DHT22;12791;50.992;13.788;2022-11-25T14:20:45;7.00;99.90
24664;DHT22;12791;50.992;13.788;2022-11-25T14:23:39;6.80;99.90
24664;DHT22;12791;50.992;13.788;2022-11-25T14:26:12;7.10;99.90
24664;DHT22;12791;50.992;13.788;2022-11-25T14:28:43;7.00;99.90
24664;DHT22;12791;50.992;13.788;2022-11-25T14:31:15;7.10;99.90
24664;DHT22;12791;50.992;13.788;2022-11-25T14:33:51;6.90;99.90
24664;DHT22;12791;50.992;13.788;2022-11-25T14:36:21;7.10;99.90
24664;DHT22;12791;50.992;13.788;2022-11-25T14:38:53;6.90;99.90
24664;DHT22;12791;50.992;13.788;2022-11-25T14:41:28;6.70;99.90
24664;DHT22;12791;50.992;13.788;2022-11-25T14:43:58;6.70;99.90
24664;DHT22;12791;50.992;13.788;2022-11-25T14:46:27;6.70;99.90
24664;DHT22;12791;50.992;13.788;2022-11-25T14:48:55;6.70;99.90
24664;DHT22;12791;50.992;13.788;2022-11-25T14:51:24;6.90;99.90
24664;DHT22;12791;50.992;13.788;2022-11-25T14:53:51;6.70;99.90
24664;DHT22;12791;50.992;13.788;2022-11-25T14:56:26;6.70;99.90
24664;DHT22;12791;50.992;13.788;2022-11-25T14:58:55;6.80;99.90
24664;DHT22;12791;50.992;13.788;2022-11-25T15:01:23;6.60;99.90
24664;DHT22;12791;50.992;13.788;2022-11-25T15:03:59;6.70;99.90
24664;DHT22;12791;50.992;13.788;2022-11-25T15:06:28;6.80;99.90
24664;DHT22;12791;50.992;13.788;2022-11-25T15:08:56;6.70;99.90
24664;DHT22;12791;50.992;13.788;2022-11-25T15:11:26;6.80;99.90
24664;DHT22;12791;50.992;13.788;2022-11-25T15:13:58;6.70;99.90
24664;DHT22;12791;50.992;13.788;2022-11-25T15:16:30;6.50;99.90
24664;DHT22;12791;50.992;13.788;2022-11-25T15:19:00;6.70;99.90
24664;DHT22;12791;50.992;13.788;2022-11-25T15:21:29;6.60;99.90
24664;DHT22;12791;50.992;13.788;2022-11-25T15:23:57;6.50;99.90
24664;DHT22;12791;50.992;13.788;2022-11-25T15:26:27;6.30;99.90
24664;DHT22;12791;50.992;13.788;2022-11-25T15:28:55;6.30;99.90
24664;DHT22;12791;50.992;13.788;2022-11-25T15:31:26;6.10;99.90
24664;DHT22;12791;50.992;13.788;2022-11-25T15:33:57;6.40;99.90
24664;DHT22;12791;50.992;13.788;2022-11-25T15:36:25;6.30;99.90
24664;DHT22;12791;50.992;13.788;2022-11-25T15:38:52;6.30;99.90
24664;DHT22;12791;50.992;13.788;2022-11-25T15:41:33;6.30;99.90
24664;DHT22;12791;50.992;13.788;2022-11-25T15:44:02;6.20;99.90
24664;DHT22;12791;50.992;13.788;2022-11-25T15:46:32;6.20;99.90
24664;DHT22;12791;50.992;13.788;2022-11-25T15:49:01;6.20;99.90
24664;DHT22;12791;50.992;13.788;2022-11-25T15:51:38;6.40;99.90
24664;DHT22;12791;50.992;13.788;2022-11-25T15:54:14;6.30;99.90
24664;DHT22;12791;50.992;13.788;2022-11-25T15:56:44;6.20;99.90
24664;DHT22;12791;50.992;13.788;2022-11-25T15:59:44;6.30;99.90
24664;DHT22;12791;50.992;13.788;2022-11-25T16:02:29;6.30;99.90
24664;DHT22;12791;50.992;13.788;2022-11-25T16:05:21;6.60;99.90
24664;DHT22;12791;50.992;13.788;2022-11-25T16:08:22;6.30;99.90
24664;DHT22;12791;50.992;13.788;2022-11-25T16:10:52;6.40;99.90
24664;DHT22;12791;50.992;13.788;2022-11-25T16:13:36;6.40;99.90
24664;DHT22;12791;50.992;13.788;2022-11-25T16:16:19;6.30;99.90
24664;DHT22;12791;50.992;13.788;2022-11-25T16:19:02;6.50;99.90
24664;DHT22;12791;50.992;13.788;2022-11-25T16:21:39;6.30;99.90
24664;DHT22;12791;50.992;13.788;2022-11-25T16:24:25;6.40;99.90
24664;DHT22;12791;50.992;13.788;2022-11-25T16:26:55;6.40;99.90
24664;DHT22;12791;50.992;13.788;2022-11-25T16:29:27;6.40;99.90
24664;DHT22;12791;50.992;13.788;2022-11-25T16:31:55;6.00;99.90
24664;DHT22;12791;50.992;13.788;2022-11-25T16:34:22;6.30;99.90
24664;DHT22;12791;50.992;13.788;2022-11-25T16:36:50;5.90;99.90
24664;DHT22;12791;50.992;13.788;2022-11-25T16:39:19;6.20;99.90
24664;DHT22;12791;50.992;13.788;2022-11-25T16:41:54;6.30;99.90
24664;DHT22;12791;50.992;13.788;2022-11-25T16:44:22;6.40;99.90
24664;DHT22;12791;50.992;13.788;2022-11-25T16:46:50;6.20;99.90
24664;DHT22;12791;50.992;13.788;2022-11-25T16:49:18;6.50;99.90
24664;DHT22;12791;50.992;13.788;2022-11-25T16:51:45;6.40;99.90
24664;DHT22;12791;50.992;13.788;2022-11-25T16:54:15;5.90;99.90
24664;DHT22;12791;50.992;13.788;2022-11-25T16:56:43;6.50;99.90
24664;DHT22;12791;50.992;13.788;2022-11-25T16:59:14;6.10;99.90
24664;DHT22;12791;50.992;13.788;2022-11-25T17:01:42;6.30;99.90
24664;DHT22;12791;50.992;13.788;2022-11-25T17:04:10;6.30;99.90
24664;DHT22;12791;50.992;13.788;2022-11-25T17:06:37;6.20;99.90
24664;DHT22;12791;50.992;13.788;2022-11-25T17:09:06;6.40;99.90
24664;DHT22;12791;50.992;13.788;2022-11-25T17:11:35;6.40;99.90
24664;DHT22;12791;50.992;13.788;2022-11-25T17:14:06;6.50;99.90
24664;DHT22;12791;50.992;13.788;2022-11-25T17:16:37;6.30;99.90
24664;DHT22;12791;50.992;13.788;2022-11-25T17:19:10;6.20;99.90
24664;DHT22;12791;50.992;13.788;2022-11-25T17:21:38;6.30;99.90
24664;DHT22;12791;50.992;13.788;2022-11-25T17:24:12;6.30;99.90
24664;DHT22;12791;50.992;13.788;2022-11-25T17:26:40;6.30;99.90
24664;DHT22;12791;50.992;13.788;2022-11-25T17:29:13;6.30;99.90
24664;DHT22;12791;50.992;13.788;2022-11-25T17:31:41;6.40;99.90
24664;DHT22;12791;50.992;13.788;2022-11-25T17:34:12;6.30;99.90
24664;DHT22;12791;50.992;13.788;2022-11-25T17:36:40;6.40;99.90
24664;DHT22;12791;50.992;13.788;2022-11-25T17:39:08;6.50;99.90
24664;DHT22;12791;50.992;13.788;2022-11-25T17:41:40;6.40;99.90
24664;DHT22;12791;50.992;13.788;2022-11-25T17:44:18;6.60;99.90
24664;DHT22;12791;50.992;13.788;2022-11-25T17:46:46;6.40;99.90
24664;DHT22;12791;50.992;13.788;2022-11-25T17:49:14;6.40;99.90
24664;DHT22;12791;50.992;13.788;2022-11-25T17:51:41;6.20;99.90
24664;DHT22;12791;50.992;13.788;2022-11-25T17:54:08;6.40;99.90
24664;DHT22;12791;50.992;13.788;2022-11-25T17:56:36;6.40;99.90
24664;DHT22;12791;50.992;13.788;2022-11-25T17:59:06;6.30;99.90
24664;DHT22;12791;50.992;13.788;2022-11-25T18:01:36;6.40;99.90
24664;DHT22;12791;50.992;13.788;2022-11-25T18:04:13;6.20;99.90
24664;DHT22;12791;50.992;13.788;2022-11-25T18:06:40;6.30;99.90
24664;DHT22;12791;50.992;13.788;2022-11-25T18:09:07;6.30;99.90
24664;DHT22;12791;50.992;13.788;2022-11-25T18:11:33;6.60;99.90
24664;DHT22;12791;50.992;13.788;2022-11-25T18:14:00;6.40;99.90
24664;DHT22;12791;50.992;13.788;2022-11-25T18:16:27;6.30;99.90
24664;DHT22;12791;50.992;13.788;2022-11-25T18:18:56;6.30;99.90
24664;DHT22;12791;50.992;13.788;2022-11-25T18:21:23;6.60;99.90
24664;DHT22;12791;50.992;13.788;2022-11-25T18:23:51;6.40;99.90
24664;DHT22;12791;50.992;13.788;2022-11-25T18:26:18;6.50;99.90
24664;DHT22;12791;50.992;13.788;2022-11-25T18:28:45;6.60;99.90
24664;DHT22;12791;50.992;13.788;2022-11-25T18:31:12;6.30;99.90
24664;DHT22;12791;50.992;13.788;2022-11-25T18:33:38;6.30;99.90
24664;DHT22;12791;50.992;13.788;2022-11-25T18:36:10;6.40;99.90
24664;DHT22;12791;50.992;13.788;2022-11-25T18:38:38;6.30;99.90
24664;DHT22;12791;50.992;13.788;2022-11-25T18:41:05;6.60;99.90
24664;DHT22;12791;50.992;13.788;2022-11-25T18:43:32;6.30;99.90
24664;DHT22;12791;50.992;13.788;2022-11-25T18:46:02;6.20;99.90
24664;DHT22;12791;50.992;13.788;2022-11-25T18:48:29;6.50;99.90
24664;DHT22;12791;50.992;13.788;2022-11-25T18:50:56;6.30;99.90
24664;DHT22;12791;50.992;13.788;2022-11-25T18:53:24;6.30;99.90
24664;DHT22;12791;50.992;13.788;2022-11-25T18:55:51;6.30;99.90
24664;DHT22;12791;50.992;13.788;2022-11-25T18:58:20;6.40;99.90
24664;DHT22;12791;50.992;13.788;2022-11-25T19:00:49;6.30;99.90
24664;DHT22;12791;50.992;13.788;2022-11-25T19:03:18;6.40;99.90
24664;DHT22;12791;50.992;13.788;2022-11-25T19:05:46;6.40;99.90
24664;DHT22;12791;50.992;13.788;2022-11-25T19:08:12;6.40;99.90
24664;DHT22;12791;50.992;13.788;2022-11-25T19:10:42;6.50;99.90
24664;DHT22;12791;50.992;13.788;2022-11-25T19:13:13;6.30;99.90
24664;DHT22;12791;50.992;13.788;2022-11-25T19:15:42;6.30;99.90
24664;DHT22;12791;50.992;13.788;2022-11-25T19:18:12;6.40;99.90
24664;DHT22;12791;50.992;13.788;2022-11-25T19:20:40;6.40;99.90
24664;DHT22;12791;50.992;13.788;2022-11-25T19:23:15;6.50;99.90
24664;DHT22;12791;50.992;13.788;2022-11-25T19:25:44;6.50;99.90
24664;DHT22;12791;50.992;13.788;2022-11-25T19:28:12;6.30;99.90
24664;DHT22;12791;50.992;13.788;2022-11-25T19:30:39;6.40;99.90
24664;DHT22;12791;50.992;13.788;2022-11-25T19:33:09;6.40;99.90
24664;DHT22;12791;50.992;13.788;2022-11-25T19:35:39;6.50;99.90
24664;DHT22;12791;50.992;13.788;2022-11-25T19:38:10;6.50;99.90
24664;DHT22;12791;50.992;13.788;2022-11-25T19:40:39;6.60;99.90
24664;DHT22;12791;50.992;13.788;2022-11-25T19:43:07;6.40;99.90
24664;DHT22;12791;50.992;13.788;2022-11-25T19:45:34;6.40;99.90
24664;DHT22;12791;50.992;13.788;2022-11-25T19:48:04;6.40;99.90
24664;DHT22;12791;50.992;13.788;2022-11-25T19:50:33;6.40;99.90
24664;DHT22;12791;50.992;13.788;2022-11-25T19:53:02;6.60;99.90
24664;DHT22;12791;50.992;13.788;2022-11-25T19:55:29;6.50;99.90
24664;DHT22;12791;50.992;13.788;2022-11-25T19:57:57;6.40;99.90
24664;DHT22;12791;50.992;13.788;2022-11-25T20:00:26;6.50;99.90
24664;DHT22;12791;50.992;13.788;2022-11-25T20:02:53;6.40;99.90